Terminal Aerodrome Forecast
Issued by NWS

Home | Current Version | Previous Version | Text Only | Print | Product List | Glossary On
Versions: 1 2 3 4 5 6 7 8 9 10 11 12 13 14 15 16 17 18 19 20 21 22 23 24 25 26 27 28 29 30 31 32 33 34 35 36 37 38 39 40 41 42
000
FTPA31 PHFO 271100
TAFITO
TAF
PHTO 271139Z 2712/2812 27010KT P6SM VCSH SCT030 BKN040
      TEMPO 2712/2716 BKN025
     FM272000 02011KT P6SM VCSH SCT025 BKN040
     FM280500 28008KT P6SM VCSH SCT025 BKN035=

USA.gov is the U.S. government's official web portal to all federal, state and local government web resources and services.